createdAt,value
2023-09-16T00:00:46.236Z,91.56
2023-09-16T00:01:49.331Z,91.69
2023-09-16T00:02:52.589Z,91.83
2023-09-16T00:03:56.196Z,91.99
2023-09-16T00:04:59.468Z,92.21
2023-09-16T00:06:03.306Z,92.24
2023-09-16T00:07:06.459Z,92.32
2023-09-16T00:08:09.150Z,92.38
2023-09-16T00:09:12.068Z,92.46
2023-09-16T00:10:15.009Z,92.51
2023-09-16T00:11:19.462Z,92.72
2023-09-16T00:12:22.607Z,92.86
2023-09-16T00:13:25.460Z,93.02
2023-09-16T00:14:30.884Z,93.05
2023-09-16T00:15:33.881Z,93.05
2023-09-16T00:16:36.774Z,93.20
2023-09-16T00:17:41.219Z,93.33
2023-09-16T00:18:44.199Z,93.27
2023-09-16T00:19:47.404Z,93.41
2023-09-16T00:20:50.424Z,93.49
2023-09-16T00:21:54.083Z,93.53
2023-09-16T00:22:58.331Z,93.50
2023-09-16T00:24:01.178Z,93.53
2023-09-16T00:25:05.527Z,93.61
2023-09-16T00:26:08.305Z,93.68
2023-09-16T00:27:11.408Z,93.71
2023-09-16T00:28:14.629Z,93.80
2023-09-16T00:29:17.564Z,93.91
2023-09-16T00:30:20.482Z,93.89
2023-09-16T00:31:23.156Z,93.98
2023-09-16T00:32:29.253Z,94.11
2023-09-16T00:33:33.141Z,94.24
2023-09-16T00:34:36.181Z,94.39
2023-09-16T00:35:39.141Z,94.43
2023-09-16T00:36:42.059Z,94.47
2023-09-16T00:37:45.583Z,94.46
2023-09-16T00:38:49.449Z,94.49
2023-09-16T00:39:52.516Z,94.52
2023-09-16T00:40:56.408Z,94.55
2023-09-16T00:41:59.021Z,94.52
2023-09-16T00:43:01.927Z,94.58
2023-09-16T00:44:05.188Z,94.71
2023-09-16T00:45:11.814Z,94.74
2023-09-16T00:46:15.049Z,94.84
2023-09-16T00:47:18.092Z,94.86
2023-09-16T00:48:20.992Z,95.05
2023-09-16T00:49:27.651Z,95.24
2023-09-16T00:50:30.940Z,95.28
2023-09-16T00:51:34.758Z,95.33
2023-09-16T00:52:41.401Z,95.39
2023-09-16T00:53:46.425Z,95.50
2023-09-16T00:54:53.331Z,95.47
2023-09-16T00:55:57.212Z,95.47
2023-09-16T00:57:02.519Z,95.62
2023-09-16T00:58:10.482Z,95.76
2023-09-16T00:59:13.723Z,95.84
2023-09-16T01:00:17.783Z,95.92
2023-09-16T01:01:20.734Z,95.91
2023-09-16T01:02:27.576Z,96.01
2023-09-16T01:03:30.706Z,96.12
2023-09-16T01:04:33.564Z,96.13
2023-09-16T01:05:37.043Z,96.17
2023-09-16T01:06:41.716Z,96.23
2023-09-16T01:07:48.394Z,96.25
2023-09-16T01:08:51.596Z,96.24
2023-09-16T01:09:54.636Z,96.33
2023-09-16T01:10:57.822Z,96.50
2023-09-16T01:12:00.891Z,96.51
2023-09-16T01:13:03.723Z,96.62
2023-09-16T01:14:07.037Z,96.79
2023-09-16T01:15:15.205Z,96.84
2023-09-16T01:16:22.174Z,96.91
2023-09-16T01:17:33.709Z,96.88
2023-09-16T01:18:40.585Z,96.96
2023-09-16T01:19:58.436Z,97.08
2023-09-16T01:21:01.830Z,97.11
2023-09-16T01:22:05.799Z,97.17
2023-09-16T01:23:09.253Z,97.19
2023-09-16T01:24:21.425Z,97.21
2023-09-16T01:25:26.806Z,97.28
2023-09-16T01:26:29.595Z,97.25
2023-09-16T01:27:33.220Z,97.24
2023-09-16T01:28:36.354Z,97.31
2023-09-16T01:29:39.940Z,97.39
2023-09-16T01:30:48.384Z,97.33
2023-09-16T01:31:51.615Z,97.32
2023-09-16T01:33:03.983Z,97.33
2023-09-16T01:34:14.854Z,97.33
2023-09-16T01:35:22.291Z,97.41
2023-09-16T01:36:27.926Z,97.53
2023-09-16T01:37:32.864Z,97.48
2023-09-16T01:38:39.173Z,97.57
2023-09-16T01:39:44.768Z,97.62
2023-09-16T01:40:49.636Z,97.70
2023-09-16T01:41:53.507Z,97.74
2023-09-16T01:43:00.138Z,97.76
2023-09-16T01:44:05.427Z,97.78
2023-09-16T01:45:11.315Z,97.78
2023-09-16T01:46:14.078Z,97.81
2023-09-16T01:47:27.139Z,97.84
2023-09-16T01:48:44.613Z,97.94
2023-09-16T01:49:49.270Z,97.98
2023-09-16T01:50:52.291Z,98.01
2023-09-16T01:51:55.312Z,98.07
2023-09-16T01:52:58.853Z,98.19
2023-09-16T01:54:01.869Z,98.22
2023-09-16T01:55:05.092Z,98.23
2023-09-16T01:56:07.843Z,98.23
2023-09-16T01:57:10.548Z,98.32
2023-09-16T01:58:14.245Z,98.33
2023-09-16T01:59:17.154Z,98.41
2023-09-16T02:00:20.414Z,98.46
2023-09-16T02:01:23.441Z,98.46
2023-09-16T02:02:26.542Z,98.55
2023-09-16T02:03:29.524Z,98.62
2023-09-16T02:04:32.733Z,98.75
2023-09-16T02:05:35.707Z,98.87
2023-09-16T02:06:39.504Z,99.00
2023-09-16T02:07:42.240Z,98.96
2023-09-16T02:08:45.216Z,99.04
2023-09-16T02:09:49.407Z,99.01
2023-09-16T02:10:52.434Z,99.06
2023-09-16T02:11:55.610Z,99.00
2023-09-16T02:12:58.531Z,99.04
2023-09-16T02:14:02.699Z,99.02
2023-09-16T02:15:07.718Z,99.18
2023-09-16T02:16:13.523Z,99.33
2023-09-16T02:17:17.294Z,99.45
2023-09-16T02:18:19.952Z,99.57
2023-09-16T02:19:24.351Z,99.64
2023-09-16T02:20:27.244Z,99.61
2023-09-16T02:21:30.920Z,99.80
2023-09-16T02:22:33.839Z,99.82
2023-09-16T02:23:36.469Z,99.91
2023-09-16T02:24:39.360Z,100.00
2023-09-16T02:25:42.052Z,100.00
2023-09-16T02:26:45.903Z,100.00
2023-09-16T02:27:48.919Z,100.00
2023-09-16T02:28:51.854Z,100.00
2023-09-16T02:29:55.020Z,100.00
2023-09-16T02:30:57.987Z,100.00
2023-09-16T02:32:01.283Z,100.00
2023-09-16T02:33:04.436Z,100.00
2023-09-16T02:34:07.380Z,100.00
2023-09-16T02:35:10.728Z,100.00
2023-09-16T02:36:14.201Z,100.00
2023-09-16T02:37:17.452Z,100.00
2023-09-16T02:38:20.156Z,100.00
2023-09-16T02:39:23.013Z,100.00
2023-09-16T02:40:28.222Z,100.00
2023-09-16T02:41:31.364Z,100.00
2023-09-16T02:42:34.707Z,100.00
2023-09-16T02:43:37.608Z,100.00
2023-09-16T02:44:40.540Z,100.00
2023-09-16T02:45:43.634Z,100.00
2023-09-16T02:46:46.756Z,100.00
2023-09-16T02:47:50.090Z,100.00
2023-09-16T02:48:53.180Z,100.00
2023-09-16T02:49:56.308Z,100.00
2023-09-16T02:50:59.240Z,100.00
2023-09-16T02:52:01.994Z,100.00
2023-09-16T02:53:05.302Z,100.00
2023-09-16T02:54:08.234Z,100.00
2023-09-16T02:55:10.925Z,100.00
2023-09-16T02:56:13.814Z,100.00
2023-09-16T02:57:16.839Z,100.00
2023-09-16T02:58:20.080Z,100.00
2023-09-16T02:59:22.748Z,100.00
2023-09-16T03:00:25.636Z,100.00
2023-09-16T03:01:28.799Z,100.00
2023-09-16T03:02:31.546Z,100.00
2023-09-16T03:03:34.900Z,100.00
2023-09-16T03:04:37.915Z,100.00
2023-09-16T03:05:46.685Z,100.00
2023-09-16T03:06:50.035Z,100.00
2023-09-16T03:07:54.403Z,100.00
2023-09-16T03:08:57.950Z,100.00
2023-09-16T03:10:01.042Z,100.00
2023-09-16T03:11:05.003Z,100.00
2023-09-16T03:12:07.801Z,100.00
2023-09-16T03:13:11.004Z,100.00
2023-09-16T03:14:14.184Z,100.00
2023-09-16T03:15:17.234Z,100.00
2023-09-16T03:16:22.838Z,100.00
2023-09-16T03:17:26.197Z,100.00
2023-09-16T03:18:29.084Z,100.00
2023-09-16T03:19:32.311Z,100.00
2023-09-16T03:20:35.261Z,100.00
2023-09-16T03:21:38.206Z,100.00
2023-09-16T03:22:41.307Z,100.00
2023-09-16T03:23:45.404Z,100.00
2023-09-16T03:24:49.730Z,100.00
2023-09-16T03:25:52.679Z,100.00
2023-09-16T03:26:56.577Z,100.00
2023-09-16T03:27:59.305Z,100.00
2023-09-16T03:29:02.730Z,100.00
2023-09-16T03:30:06.931Z,100.00
2023-09-16T03:31:10.485Z,100.00
2023-09-16T03:32:13.859Z,100.00
2023-09-16T03:33:16.682Z,100.00
2023-09-16T03:34:19.302Z,100.00
2023-09-16T03:35:25.936Z,100.00
2023-09-16T03:36:28.635Z,100.00
2023-09-16T03:37:31.545Z,100.00
2023-09-16T03:38:36.002Z,100.00
2023-09-16T03:39:40.231Z,100.00
2023-09-16T03:40:43.669Z,100.00
2023-09-16T03:41:46.777Z,100.00
2023-09-16T03:42:50.014Z,100.00
2023-09-16T03:43:53.287Z,100.00
2023-09-16T03:44:57.794Z,100.00
2023-09-16T03:46:03.509Z,100.00
2023-09-16T03:47:08.937Z,100.00
2023-09-16T03:48:12.297Z,100.00
2023-09-16T03:49:15.592Z,100.00
2023-09-16T03:50:19.077Z,100.00
2023-09-16T03:51:22.284Z,100.00
2023-09-16T03:52:26.588Z,100.00
2023-09-16T03:53:40.778Z,100.00
2023-09-16T03:54:44.492Z,100.00
2023-09-16T03:55:47.694Z,100.00
2023-09-16T03:56:50.717Z,100.00
2023-09-16T03:57:53.750Z,100.00
2023-09-16T03:58:56.589Z,100.00
2023-09-16T03:59:59.495Z,100.00
2023-09-16T04:01:03.796Z,100.00
2023-09-16T04:02:06.869Z,100.00
2023-09-16T04:03:10.072Z,100.00
2023-09-16T04:04:13.581Z,100.00
2023-09-16T04:05:16.548Z,100.00
2023-09-16T04:06:19.603Z,100.00
2023-09-16T04:07:23.504Z,100.00
2023-09-16T04:08:32.844Z,100.00
2023-09-16T04:09:43.291Z,100.00
2023-09-16T04:10:45.935Z,100.00
2023-09-16T04:11:48.592Z,100.00
2023-09-16T04:12:51.832Z,100.00
2023-09-16T04:13:54.842Z,100.00
2023-09-16T04:14:57.769Z,100.00
2023-09-16T04:16:00.444Z,100.00
2023-09-16T04:17:03.765Z,100.00
2023-09-16T04:18:06.901Z,100.00
2023-09-16T04:19:10.370Z,100.00
2023-09-16T04:20:13.262Z,100.00
2023-09-16T04:21:16.121Z,100.00
2023-09-16T04:22:19.084Z,100.00
2023-09-16T04:23:23.222Z,100.00
2023-09-16T04:24:26.429Z,100.00
2023-09-16T04:25:30.832Z,100.00
2023-09-16T04:26:34.619Z,100.00
2023-09-16T04:27:37.301Z,100.00
2023-09-16T04:28:40.828Z,100.00
2023-09-16T04:29:43.874Z,100.00
2023-09-16T04:30:51.174Z,100.00
2023-09-16T04:31:54.433Z,100.00
2023-09-16T04:32:58.256Z,100.00
2023-09-16T04:34:01.238Z,100.00
2023-09-16T04:35:04.854Z,100.00
2023-09-16T04:36:07.940Z,100.00
2023-09-16T04:37:10.924Z,100.00
2023-09-16T04:38:14.837Z,100.00
2023-09-16T04:39:18.390Z,100.00
2023-09-16T04:40:21.432Z,100.00
2023-09-16T04:41:24.205Z,100.00
2023-09-16T04:42:31.765Z,100.00
2023-09-16T04:43:34.954Z,100.00
2023-09-16T04:44:40.352Z,100.00
2023-09-16T04:45:50.540Z,100.00
2023-09-16T04:46:55.520Z,100.00
2023-09-16T04:47:59.973Z,100.00
2023-09-16T04:49:02.784Z,100.00
2023-09-16T04:50:06.744Z,100.00
2023-09-16T04:51:10.909Z,100.00
2023-09-16T04:52:13.832Z,100.00
2023-09-16T04:53:17.666Z,100.00
2023-09-16T04:54:20.371Z,100.00
2023-09-16T04:55:23.636Z,100.00
2023-09-16T04:56:26.310Z,100.00
2023-09-16T04:57:29.478Z,100.00
2023-09-16T04:58:33.232Z,100.00
2023-09-16T04:59:36.297Z,100.00
2023-09-16T05:00:40.012Z,100.00
2023-09-16T05:01:43.243Z,100.00
2023-09-16T05:02:51.664Z,100.00
2023-09-16T05:03:54.908Z,100.00
2023-09-16T05:04:58.086Z,99.89
2023-09-16T05:06:01.614Z,99.46
2023-09-16T05:07:08.359Z,99.17
2023-09-16T05:08:11.018Z,98.84
2023-09-16T05:09:13.935Z,98.55
2023-09-16T05:10:16.940Z,98.33
2023-09-16T05:11:20.081Z,97.78
2023-09-16T05:12:23.943Z,97.43
2023-09-16T05:13:26.902Z,97.05
2023-09-16T05:14:29.629Z,96.74
2023-09-16T05:15:32.469Z,96.33
2023-09-16T05:16:35.765Z,95.80
2023-09-16T05:17:40.278Z,95.31
2023-09-16T05:18:43.304Z,94.73
2023-09-16T05:19:46.257Z,94.36
2023-09-16T05:20:52.563Z,93.91
2023-09-16T05:21:55.842Z,93.29
2023-09-16T05:22:58.478Z,92.88
2023-09-16T05:24:04.341Z,92.52
2023-09-16T05:25:07.694Z,92.11
2023-09-16T05:26:14.087Z,91.64
2023-09-16T05:27:17.330Z,91.59
2023-09-16T05:28:20.326Z,91.22
2023-09-16T05:29:23.389Z,91.13
2023-09-16T05:30:26.414Z,90.59
2023-09-16T05:31:29.595Z,90.28
2023-09-16T05:32:32.930Z,90.15
2023-09-16T05:33:35.959Z,89.88
2023-09-16T05:34:39.099Z,89.48
2023-09-16T05:35:43.057Z,89.17
2023-09-16T05:36:46.261Z,88.86
2023-09-16T05:37:49.488Z,88.82
2023-09-16T05:38:52.337Z,88.38
2023-09-16T05:39:55.351Z,88.11
2023-09-16T05:40:58.421Z,87.99
2023-09-16T05:42:01.059Z,87.84
2023-09-16T05:43:04.162Z,87.46
2023-09-16T05:44:07.405Z,87.08
2023-09-16T05:45:11.604Z,87.08
2023-09-16T05:46:14.729Z,87.05
2023-09-16T05:47:18.613Z,86.80
2023-09-16T05:48:22.182Z,86.32
2023-09-16T05:49:25.275Z,85.93
2023-09-16T05:50:28.364Z,85.27
2023-09-16T05:51:31.285Z,84.90
2023-09-16T05:52:34.213Z,84.62
2023-09-16T05:53:37.454Z,84.39
2023-09-16T05:54:40.696Z,84.06
2023-09-16T05:55:43.486Z,83.84
2023-09-16T05:56:47.977Z,83.62
2023-09-16T05:57:51.817Z,83.27
2023-09-16T05:58:56.214Z,83.08
2023-09-16T05:59:59.938Z,82.90
2023-09-16T06:01:02.905Z,82.89
2023-09-16T06:02:06.526Z,82.71
2023-09-16T06:03:10.246Z,82.48
2023-09-16T06:04:13.146Z,82.30
2023-09-16T06:05:16.511Z,81.90
2023-09-16T06:06:20.878Z,81.94
2023-09-16T06:07:27.268Z,81.98
2023-09-16T06:08:30.634Z,81.83
2023-09-16T06:09:33.656Z,81.58
2023-09-16T06:10:36.535Z,81.13
2023-09-16T06:11:39.225Z,80.59
2023-09-16T06:12:42.507Z,80.20
2023-09-16T06:13:45.512Z,79.93
2023-09-16T06:14:48.445Z,79.34
2023-09-16T06:15:51.411Z,79.08
2023-09-16T06:16:54.224Z,78.91
2023-09-16T06:17:57.167Z,78.97
2023-09-16T06:19:00.137Z,78.55
2023-09-16T06:20:02.938Z,78.88
2023-09-16T06:21:05.925Z,78.41
2023-09-16T06:22:11.249Z,78.30
2023-09-16T06:23:15.355Z,77.99
2023-09-16T06:24:20.144Z,78.05
2023-09-16T06:25:24.207Z,77.65
2023-09-16T06:26:27.639Z,77.22
2023-09-16T06:27:31.133Z,76.75
2023-09-16T06:28:34.599Z,76.52
2023-09-16T06:29:37.917Z,76.00
2023-09-16T06:30:40.592Z,75.43
2023-09-16T06:31:43.323Z,75.33
2023-09-16T06:32:46.220Z,74.87
2023-09-16T06:33:50.421Z,74.44
2023-09-16T06:34:53.357Z,74.51
2023-09-16T06:35:56.258Z,74.34
2023-09-16T06:37:01.061Z,74.22
2023-09-16T06:38:03.947Z,73.79
2023-09-16T06:39:08.983Z,72.84
2023-09-16T06:40:12.605Z,72.60
2023-09-16T06:41:15.595Z,72.76
2023-09-16T06:42:18.565Z,72.53
2023-09-16T06:43:21.591Z,72.03
2023-09-16T06:44:25.463Z,72.35
2023-09-16T06:45:28.419Z,71.16
2023-09-16T06:46:31.222Z,71.69
2023-09-16T06:47:33.925Z,71.15
2023-09-16T06:48:36.755Z,71.92
2023-09-16T06:49:39.702Z,71.53
2023-09-16T06:50:43.963Z,71.26
2023-09-16T06:51:46.839Z,71.26
2023-09-16T06:52:49.619Z,70.30
2023-09-16T06:53:52.488Z,70.41
2023-09-16T06:54:56.045Z,70.33
2023-09-16T06:55:59.035Z,70.51
2023-09-16T06:57:02.042Z,70.71
2023-09-16T06:58:05.777Z,70.18
2023-09-16T06:59:08.766Z,69.94
2023-09-16T07:00:12.345Z,69.96
2023-09-16T07:01:15.159Z,69.22
2023-09-16T07:02:18.370Z,69.29
2023-09-16T07:03:22.739Z,69.10
2023-09-16T07:04:28.462Z,68.54
2023-09-16T07:05:31.817Z,68.82
2023-09-16T07:06:34.816Z,69.45
2023-09-16T07:07:38.233Z,68.34
2023-09-16T07:08:41.143Z,67.66
2023-09-16T07:09:44.079Z,67.99
2023-09-16T07:10:47.132Z,68.18
2023-09-16T07:11:50.065Z,67.47
2023-09-16T07:12:52.745Z,67.00
2023-09-16T07:13:55.699Z,67.15
2023-09-16T07:14:58.286Z,67.15
2023-09-16T07:16:01.616Z,67.04
2023-09-16T07:17:05.565Z,66.81
2023-09-16T07:18:08.303Z,66.58
2023-09-16T07:19:11.173Z,66.55
2023-09-16T07:20:14.159Z,66.28
2023-09-16T07:21:17.332Z,65.90
2023-09-16T07:22:21.492Z,65.86
2023-09-16T07:23:24.336Z,65.60
2023-09-16T07:24:27.506Z,65.68
2023-09-16T07:25:30.439Z,65.39
2023-09-16T07:26:33.466Z,64.96
2023-09-16T07:27:36.157Z,64.97
2023-09-16T07:28:38.949Z,65.06
2023-09-16T07:29:41.629Z,64.84
2023-09-16T07:30:44.550Z,65.14
2023-09-16T07:31:47.921Z,65.40
2023-09-16T07:32:51.524Z,65.06
2023-09-16T07:33:54.599Z,65.71
2023-09-16T07:34:57.292Z,65.53
2023-09-16T07:36:00.090Z,64.70
2023-09-16T07:37:04.771Z,64.43
2023-09-16T07:38:07.751Z,63.98
2023-09-16T07:39:10.640Z,63.89
2023-09-16T07:40:13.703Z,63.87
2023-09-16T07:41:16.331Z,63.83
2023-09-16T07:42:19.406Z,63.28
2023-09-16T07:43:22.349Z,63.22
2023-09-16T07:44:25.296Z,63.77
2023-09-16T07:45:28.346Z,63.56
2023-09-16T07:46:31.268Z,63.10
2023-09-16T07:47:34.370Z,63.65
2023-09-16T07:48:37.300Z,63.58
2023-09-16T07:49:40.267Z,62.77
2023-09-16T07:50:42.984Z,62.43
2023-09-16T07:51:47.435Z,62.47
2023-09-16T07:52:50.512Z,62.75
2023-09-16T07:53:53.380Z,61.36
2023-09-16T07:54:58.423Z,62.13
2023-09-16T07:56:01.318Z,61.69
2023-09-16T07:57:04.132Z,62.52
2023-09-16T07:58:07.505Z,62.40
2023-09-16T07:59:10.594Z,62.24
2023-09-16T08:00:14.087Z,63.45
2023-09-16T08:01:17.321Z,63.96
2023-09-16T08:02:20.206Z,63.71
2023-09-16T08:03:23.491Z,63.20
2023-09-16T08:04:26.446Z,63.25
2023-09-16T08:05:29.519Z,64.12
2023-09-16T08:06:32.418Z,64.04
2023-09-16T08:07:36.180Z,64.50
2023-09-16T08:08:39.088Z,64.10
2023-09-16T08:09:41.691Z,63.17
2023-09-16T08:10:48.414Z,62.56
2023-09-16T08:11:51.312Z,61.80
2023-09-16T08:12:54.221Z,61.61
2023-09-16T08:13:57.457Z,61.99
2023-09-16T08:15:02.601Z,62.03
2023-09-16T08:16:05.259Z,62.71
2023-09-16T08:17:08.553Z,62.44
2023-09-16T08:18:11.284Z,61.87
2023-09-16T08:19:13.946Z,61.55
2023-09-16T08:20:20.134Z,60.90
2023-09-16T08:21:23.049Z,61.58
2023-09-16T08:22:26.585Z,62.33
2023-09-16T08:23:29.161Z,61.70
2023-09-16T08:24:32.083Z,60.99
2023-09-16T08:25:34.766Z,61.09
2023-09-16T08:26:37.348Z,61.63
2023-09-16T08:27:40.393Z,61.50
2023-09-16T08:28:43.306Z,60.92
2023-09-16T08:29:45.922Z,60.90
2023-09-16T08:30:48.803Z,59.94
2023-09-16T08:31:51.734Z,59.53
2023-09-16T08:32:54.670Z,59.78
2023-09-16T08:34:04.774Z,59.75
2023-09-16T08:35:09.038Z,60.17
2023-09-16T08:36:12.100Z,59.47
2023-09-16T08:37:18.732Z,59.24
2023-09-16T08:38:22.032Z,58.78
2023-09-16T08:39:24.959Z,59.27
2023-09-16T08:40:30.672Z,59.06
2023-09-16T08:42:08.968Z,59.67
2023-09-16T08:43:34.535Z,59.82
2023-09-16T08:44:39.786Z,61.54
2023-09-16T08:46:02.563Z,60.94
2023-09-16T08:47:15.489Z,59.66
2023-09-16T08:48:22.658Z,60.02
2023-09-16T08:49:28.737Z,59.64
2023-09-16T08:50:32.503Z,59.50
2023-09-16T08:51:41.641Z,58.49
2023-09-16T08:52:48.259Z,59.11
2023-09-16T08:53:53.594Z,58.72
2023-09-16T08:54:58.495Z,59.40
2023-09-16T08:56:02.573Z,59.82
2023-09-16T08:57:05.985Z,60.56
2023-09-16T08:58:11.691Z,60.82
2023-09-16T08:59:14.684Z,61.33
2023-09-16T09:00:18.177Z,61.52
2023-09-16T09:01:21.515Z,61.21
2023-09-16T09:02:28.295Z,61.11
2023-09-16T09:03:33.304Z,62.24
2023-09-16T09:04:36.239Z,62.16
2023-09-16T09:05:40.290Z,61.99
2023-09-16T09:06:44.441Z,62.27
2023-09-16T09:07:48.543Z,61.54
2023-09-16T09:08:51.561Z,61.55
2023-09-16T09:09:54.448Z,60.93
2023-09-16T09:10:58.159Z,61.37
2023-09-16T09:12:02.276Z,62.18
2023-09-16T09:13:07.543Z,61.51
2023-09-16T09:14:12.826Z,61.55
2023-09-16T09:15:17.128Z,60.96
2023-09-16T09:16:22.322Z,61.11
2023-09-16T09:17:25.715Z,60.51
2023-09-16T09:18:31.023Z,59.50
2023-09-16T09:19:34.473Z,59.51
2023-09-16T09:20:38.257Z,59.22
2023-09-16T09:21:43.614Z,59.29
2023-09-16T09:22:50.108Z,59.28
2023-09-16T09:23:52.879Z,59.79
2023-09-16T09:24:56.723Z,60.54
2023-09-16T09:25:59.735Z,59.67
2023-09-16T09:27:02.641Z,60.47
2023-09-16T09:28:06.581Z,60.52
2023-09-16T09:29:13.434Z,60.80
2023-09-16T09:30:17.046Z,62.27
2023-09-16T09:31:20.878Z,62.50
2023-09-16T09:32:23.724Z,61.12
2023-09-16T09:33:28.233Z,60.35
2023-09-16T09:34:31.224Z,60.80
2023-09-16T09:35:34.172Z,60.82
2023-09-16T09:36:37.046Z,60.32
2023-09-16T09:37:40.601Z,60.16
2023-09-16T09:38:45.305Z,60.30
2023-09-16T09:40:06.307Z,60.31
2023-09-16T09:41:09.597Z,60.11
2023-09-16T09:42:28.407Z,59.69
2023-09-16T09:43:31.822Z,59.51
2023-09-16T09:44:35.721Z,60.47
2023-09-16T09:45:42.329Z,60.11
2023-09-16T09:46:45.760Z,59.20
2023-09-16T09:47:51.198Z,59.22
2023-09-16T09:48:54.168Z,60.26
2023-09-16T09:49:57.226Z,59.89
2023-09-16T09:51:03.203Z,60.29
2023-09-16T09:52:06.425Z,60.49
2023-09-16T09:53:11.122Z,60.01
2023-09-16T09:54:14.101Z,60.09
2023-09-16T09:55:21.907Z,59.74
2023-09-16T09:56:25.106Z,60.30
2023-09-16T09:57:28.632Z,60.14
2023-09-16T09:58:33.133Z,60.73
2023-09-16T09:59:36.398Z,60.72
2023-09-16T10:00:47.399Z,60.95
2023-09-16T10:01:50.933Z,60.47
2023-09-16T10:02:54.386Z,60.46
2023-09-16T10:03:57.248Z,60.59
2023-09-16T10:05:02.774Z,59.78
2023-09-16T10:06:16.341Z,59.49
2023-09-16T10:07:19.813Z,58.27
2023-09-16T10:08:22.859Z,57.48
2023-09-16T10:09:25.566Z,56.41
2023-09-16T10:10:28.236Z,57.14
2023-09-16T10:11:33.538Z,57.23
2023-09-16T10:12:37.311Z,57.39
2023-09-16T10:13:41.255Z,57.22
2023-09-16T10:14:44.186Z,56.35
2023-09-16T10:15:47.360Z,56.15
2023-09-16T10:16:50.514Z,56.25
2023-09-16T10:17:54.495Z,55.79
2023-09-16T10:18:57.749Z,55.49
2023-09-16T10:20:01.381Z,55.65
2023-09-16T10:21:04.437Z,55.19
2023-09-16T10:22:07.155Z,54.35
2023-09-16T10:23:12.647Z,55.23
2023-09-16T10:24:15.437Z,55.62
2023-09-16T10:25:19.307Z,55.06
2023-09-16T10:26:22.068Z,55.89
2023-09-16T10:27:28.316Z,55.40
2023-09-16T10:28:34.102Z,55.15
2023-09-16T10:29:39.628Z,55.50
2023-09-16T10:30:42.323Z,55.54
2023-09-16T10:31:45.658Z,55.87
2023-09-16T10:32:48.736Z,56.24
2023-09-16T10:33:53.932Z,56.43
2023-09-16T10:34:59.793Z,55.55
2023-09-16T10:36:02.528Z,54.78
2023-09-16T10:37:05.372Z,55.26
2023-09-16T10:38:12.422Z,54.66
2023-09-16T10:39:17.014Z,54.04
2023-09-16T10:40:21.026Z,53.37
2023-09-16T10:41:25.350Z,54.00
2023-09-16T10:42:29.243Z,54.36
2023-09-16T10:43:32.416Z,53.78
2023-09-16T10:44:36.169Z,52.95
2023-09-16T10:45:39.210Z,52.51
2023-09-16T10:46:44.261Z,51.61
2023-09-16T10:47:48.373Z,53.41
2023-09-16T10:48:52.954Z,54.29
2023-09-16T10:49:56.324Z,55.40
2023-09-16T10:51:07.012Z,54.56
2023-09-16T10:52:11.584Z,53.45
2023-09-16T10:53:27.297Z,54.20
2023-09-16T10:55:04.893Z,54.77
2023-09-16T10:56:24.806Z,54.70
2023-09-16T10:57:37.616Z,54.41
2023-09-16T10:58:57.125Z,54.66
2023-09-16T11:00:04.102Z,54.34
2023-09-16T11:01:09.299Z,52.96
2023-09-16T11:02:38.386Z,52.44
2023-09-16T11:03:48.028Z,53.77
2023-09-16T11:04:50.714Z,54.31
2023-09-16T11:05:53.594Z,53.90
2023-09-16T11:08:02.913Z,53.60
2023-09-16T11:09:06.539Z,54.38
2023-09-16T11:10:10.322Z,53.45
2023-09-16T11:11:13.682Z,52.97
2023-09-16T11:12:19.091Z,53.13
2023-09-16T11:13:26.318Z,52.82
2023-09-16T11:14:30.154Z,53.68
2023-09-16T11:15:34.607Z,54.76
2023-09-16T11:16:49.519Z,53.91
2023-09-16T11:18:04.584Z,52.91
2023-09-16T11:19:14.117Z,52.47
2023-09-16T11:20:32.133Z,53.70
2023-09-16T11:21:35.132Z,54.39
2023-09-16T11:22:39.029Z,56.25
2023-09-16T11:23:45.133Z,55.67
2023-09-16T11:24:54.109Z,57.51
2023-09-16T11:25:58.721Z,57.63
2023-09-16T11:27:02.027Z,56.52
2023-09-16T11:28:09.625Z,55.07
2023-09-16T11:29:25.209Z,54.63
2023-09-16T11:30:28.589Z,53.39
2023-09-16T11:31:31.484Z,51.96
2023-09-16T11:32:34.808Z,52.83
2023-09-16T11:33:39.441Z,53.92
2023-09-16T11:34:43.560Z,52.42
2023-09-16T11:35:47.206Z,52.83
2023-09-16T11:37:03.850Z,54.39
2023-09-16T11:38:06.930Z,54.65
2023-09-16T11:39:11.417Z,56.24
2023-09-16T11:40:16.193Z,57.01
2023-09-16T11:41:19.951Z,57.08
2023-09-16T11:42:23.046Z,56.97
2023-09-16T11:43:26.793Z,57.48
2023-09-16T11:44:32.129Z,58.18
2023-09-16T11:45:36.340Z,59.71
2023-09-16T11:46:40.633Z,60.09
2023-09-16T11:47:43.922Z,60.74
2023-09-16T11:48:59.132Z,61.45
2023-09-16T11:50:09.863Z,61.59
2023-09-16T11:51:12.648Z,61.33
2023-09-16T11:52:16.247Z,61.96
2023-09-16T11:53:21.461Z,62.56
2023-09-16T11:54:24.474Z,62.49
2023-09-16T11:55:28.257Z,62.96
2023-09-16T11:56:35.674Z,63.69
2023-09-16T11:57:41.257Z,63.80
2023-09-16T11:58:45.988Z,63.68
2023-09-16T11:59:51.606Z,63.92
2023-09-16T12:00:54.370Z,63.84
2023-09-16T12:01:58.044Z,64.90
2023-09-16T12:03:02.743Z,65.57
2023-09-16T12:04:07.083Z,65.46
2023-09-16T12:05:15.421Z,65.62
2023-09-16T12:06:21.609Z,66.50
2023-09-16T12:07:26.020Z,65.81
2023-09-16T12:08:32.287Z,65.72
2023-09-16T12:09:35.285Z,65.97
2023-09-16T12:10:38.319Z,65.72
2023-09-16T12:11:41.004Z,65.67
2023-09-16T12:12:44.648Z,63.97
2023-09-16T12:13:47.755Z,63.76
2023-09-16T12:14:51.044Z,63.57
2023-09-16T12:16:00.109Z,63.55
2023-09-16T12:17:03.304Z,63.59
2023-09-16T12:18:06.293Z,63.62
2023-09-16T12:19:09.670Z,62.53
2023-09-16T12:20:16.297Z,62.32
2023-09-16T12:21:20.257Z,65.32
2023-09-16T12:22:23.969Z,63.71
2023-09-16T12:23:29.400Z,61.72
2023-09-16T12:24:32.189Z,61.10
2023-09-16T12:25:42.193Z,62.08
2023-09-16T12:26:46.010Z,62.66
2023-09-16T12:27:49.017Z,62.11
2023-09-16T12:28:52.815Z,60.81
2023-09-16T12:29:56.454Z,60.99
2023-09-16T12:30:59.343Z,61.24
2023-09-16T12:32:12.785Z,61.38
2023-09-16T12:33:15.758Z,62.79
2023-09-16T12:34:20.560Z,62.97
2023-09-16T12:35:24.262Z,61.31
2023-09-16T12:36:31.468Z,61.48
2023-09-16T12:37:34.313Z,61.68
2023-09-16T12:38:39.008Z,61.74
2023-09-16T12:39:42.243Z,62.17
2023-09-16T12:40:52.224Z,61.96
2023-09-16T12:42:14.716Z,62.67
2023-09-16T12:43:18.885Z,62.84
2023-09-16T12:44:21.913Z,63.13
2023-09-16T12:45:26.450Z,62.91
2023-09-16T12:46:31.464Z,62.70
2023-09-16T12:47:34.476Z,63.07
2023-09-16T12:48:39.732Z,63.45
2023-09-16T12:49:42.784Z,63.72
2023-09-16T12:50:46.548Z,63.07
2023-09-16T12:51:49.779Z,63.45
2023-09-16T12:52:53.995Z,63.62
2023-09-16T12:53:59.352Z,64.17
2023-09-16T12:55:02.085Z,64.59
2023-09-16T12:56:05.180Z,64.30
2023-09-16T12:57:09.406Z,64.07
2023-09-16T12:58:12.542Z,63.41
2023-09-16T12:59:16.411Z,62.63
2023-09-16T13:00:24.333Z,62.87
2023-09-16T13:01:29.644Z,63.58
2023-09-16T13:02:36.901Z,64.52
2023-09-16T13:03:40.109Z,63.87
2023-09-16T13:04:43.080Z,65.23
2023-09-16T13:05:53.760Z,64.79
2023-09-16T13:07:00.434Z,64.54
2023-09-16T13:08:04.299Z,64.41
2023-09-16T13:09:08.112Z,64.42
2023-09-16T13:10:11.355Z,63.26
2023-09-16T13:11:15.719Z,62.61
2023-09-16T13:12:19.172Z,61.43
2023-09-16T13:13:25.971Z,61.90
2023-09-16T13:14:29.142Z,60.53
2023-09-16T13:15:31.956Z,59.72
2023-09-16T13:16:39.981Z,60.19
2023-09-16T13:17:44.498Z,61.88
2023-09-16T13:18:47.382Z,62.58
2023-09-16T13:19:50.733Z,61.11
2023-09-16T13:20:58.091Z,61.16
2023-09-16T13:22:03.387Z,60.89
2023-09-16T13:23:08.020Z,60.84
2023-09-16T13:24:11.117Z,61.10
2023-09-16T13:25:34.108Z,62.20
2023-09-16T13:26:36.977Z,63.20
2023-09-16T13:27:40.210Z,62.32
2023-09-16T13:29:02.473Z,64.37
2023-09-16T13:30:05.801Z,63.01
2023-09-16T13:31:08.791Z,63.04
2023-09-16T13:32:12.117Z,62.81
2023-09-16T13:33:15.590Z,62.88
2023-09-16T13:34:19.052Z,61.60
2023-09-16T13:35:22.051Z,61.58
2023-09-16T13:36:26.217Z,60.69
2023-09-16T13:37:31.189Z,61.99
2023-09-16T13:38:35.757Z,61.50
2023-09-16T13:39:43.365Z,62.45
2023-09-16T13:40:50.385Z,63.15
2023-09-16T13:41:53.472Z,62.57
2023-09-16T13:42:56.623Z,62.51
2023-09-16T13:44:00.325Z,62.02
2023-09-16T13:45:04.230Z,61.79
2023-09-16T13:46:06.955Z,62.29